Archival Weather

Tokyo Intl

Tokyo Intl, Japan (RJTT)

Report from: Friday, June 24, 2022 8:30 PM JST
Current time: Tuesday, August 16, 2022 9:29 AM JST

Current weather
Weather history
Weather forecast

Temperature27.0°C (80.6°F)
Heat index29.7°C (85.5°F)
Dew point23.0°C (73.4°F)
Winds 21 kts (10.8 m/s, 24.2 mph) South-Southwest (210°)
Visibility6.2 mi. (10 km)
Clouds Scattered clouds 0 ft. (0 m)
Few clouds 1,000 ft. (305 m)
Altimeter29.62 in.Hg (1003 mB)
Relative humidity79 %
Density altitude2,107 ft. (642 m)
Remarks No significant changes expected in the next two hours
Flight conditions Visual Meteorological Conditions
Raw dataRJTT 241130Z 21021KT 9999 FEW010 SCT/// 27/23 Q1003 NOSIG RMK 1CU010 A2964
An error has occurred. This application may no longer respond until reloaded. Reload 🗙